Time;durP1;ratioP1;P1;durP2;ratioP2;P2;SDS_P1;SDS_P2;PMS_P1;PMS_P2;Temp;Humidity;BMP_temperature;BMP_pressure;BME280_temperature;BME280_humidity;BME280_pressure;Samples;Min_cycle;Max_cycle;Signal;HPM_P1;HPM_P2
2024/01/20 00:00:04;;;;;;;74.70;34.17;;;;;;;;;;5072386;28;20476;-79
2024/01/20 00:02:30;;;;;;;85.15;36.00;;;;;;;;;;5071263;28;20032;-79
2024/01/20 00:04:56;;;;;;;79.60;34.30;;;;;;;;;;5071355;28;20028;-78
2024/01/20 00:07:22;;;;;;;78.43;36.15;;;;;;;;;;5071111;28;20033;-78
2024/01/20 00:09:48;;;;;;;74.65;34.30;;;;;;;;;;5072360;28;20476;-77
2024/01/20 00:12:14;;;;;;;74.78;34.58;;;;;;;;;;5070874;28;20082;-77
2024/01/20 00:14:40;;;;;;;74.70;34.75;;;;;;;;;;5072477;28;20028;-78
2024/01/20 00:17:06;;;;;;;65.20;30.48;;;;;;;;;;5070897;28;20025;-77
2024/01/20 00:19:32;;;;;;;73.03;31.27;;;;;;;;;;5071108;28;20024;-77
2024/01/20 00:21:58;;;;;;;72.60;33.33;;;;;;;;;;5072216;28;20032;-77
2024/01/20 00:24:24;;;;;;;78.97;34.80;;;;;;;;;;5070884;28;20029;-77
2024/01/20 00:26:50;;;;;;;66.70;30.23;;;;;;;;;;5071967;28;20053;-78
2024/01/20 00:29:16;;;;;;;71.07;32.17;;;;;;;;;;5070790;28;20052;-77
2024/01/20 00:31:42;;;;;;;69.18;29.60;;;;;;;;;;5070927;28;20036;-78
2024/01/20 00:34:08;;;;;;;68.93;33.95;;;;;;;;;;5071622;28;20067;-78
2024/01/20 00:36:34;;;;;;;79.78;36.13;;;;;;;;;;5076026;28;20468;-77
2024/01/20 00:39:00;;;;;;;77.47;31.80;;;;;;;;;;5074996;28;20028;-78
2024/01/20 00:41:26;;;;;;;77.90;34.58;;;;;;;;;;5075623;28;20032;-78
2024/01/20 00:43:52;;;;;;;74.90;30.08;;;;;;;;;;5076195;28;20054;-77
2024/01/20 00:46:18;;;;;;;83.82;34.65;;;;;;;;;;5074523;28;20031;-78
2024/01/20 00:48:44;;;;;;;75.95;34.72;;;;;;;;;;5074887;28;20027;-77
2024/01/20 00:51:10;;;;;;;75.93;32.72;;;;;;;;;;5074556;28;20456;-78
2024/01/20 00:53:36;;;;;;;70.70;30.65;;;;;;;;;;5074622;28;20086;-78
2024/01/20 00:56:02;;;;;;;92.82;37.67;;;;;;;;;;5076177;28;20474;-78
2024/01/20 00:58:28;;;;;;;77.22;32.75;;;;;;;;;;5074426;28;20024;-77
2024/01/20 01:00:54;;;;;;;75.88;31.70;;;;;;;;;;5075726;28;20055;-78
2024/01/20 01:03:21;;;;;;;72.40;32.38;;;;;;;;;;5074051;28;20091;-78
2024/01/20 01:05:47;;;;;;;84.78;36.92;;;;;;;;;;5074372;28;20055;-78
2024/01/20 01:08:13;;;;;;;81.35;37.22;;;;;;;;;;5074115;28;20024;-78
2024/01/20 01:10:39;;;;;;;75.85;30.23;;;;;;;;;;5074283;28;20066;-78
2024/01/20 01:13:05;;;;;;;69.30;30.75;;;;;;;;;;5074243;28;20036;-78
2024/01/20 01:15:32;;;;;;;77.10;33.58;;;;;;;;;;5073892;28;20028;-77
2024/01/20 01:17:58;;;;;;;86.10;32.95;;;;;;;;;;5075475;28;20032;-78
2024/01/20 01:20:24;;;;;;;82.40;32.30;;;;;;;;;;5073708;28;20028;-77
2024/01/20 01:22:51;;;;;;;76.00;34.17;;;;;;;;;;5073997;28;20036;-78
2024/01/20 01:25:17;;;;;;;84.03;33.60;;;;;;;;;;5073625;28;20024;-76
2024/01/20 01:27:43;;;;;;;73.05;30.25;;;;;;;;;;5074034;28;20024;-78
2024/01/20 01:30:09;;;;;;;83.28;34.70;;;;;;;;;;5073842;28;20033;-78
2024/01/20 01:32:35;;;;;;;83.05;33.78;;;;;;;;;;5073792;28;20037;-79
2024/01/20 01:35:03;;;;;;;81.93;36.78;;;;;;;;;;5074282;28;20028;-79
2024/01/20 01:37:29;;;;;;;75.25;32.60;;;;;;;;;;5073714;28;20024;-78
2024/01/20 01:39:55;;;;;;;83.70;32.33;;;;;;;;;;5075317;28;20052;-78
2024/01/20 01:42:21;;;;;;;82.03;34.60;;;;;;;;;;5074987;28;20031;-79
2024/01/20 01:44:47;;;;;;;73.18;30.48;;;;;;;;;;5074012;28;20029;-77
2024/01/20 01:47:13;;;;;;;76.95;31.35;;;;;;;;;;5072812;28;20384;-77
2024/01/20 01:49:39;;;;;;;74.85;31.20;;;;;;;;;;5073830;28;20072;-78
2024/01/20 01:52:05;;;;;;;89.05;37.83;;;;;;;;;;5073910;28;20040;-77
2024/01/20 01:54:32;;;;;;;82.53;34.90;;;;;;;;;;5073720;28;20024;-77
2024/01/20 01:56:59;;;;;;;73.65;30.83;;;;;;;;;;5079720;28;20021;-77
2024/01/20 01:59:26;;;;;;;86.70;34.80;;;;;;;;;;5089705;28;20106;-75
2024/01/20 02:01:52;;;;;;;80.03;32.72;;;;;;;;;;5089414;28;20049;-77
2024/01/20 02:04:18;;;;;;;76.40;30.42;;;;;;;;;;5082131;28;20031;-78
2024/01/20 02:06:44;;;;;;;69.63;31.08;;;;;;;;;;5073314;28;20361;-78
2024/01/20 02:09:11;;;;;;;78.43;30.80;;;;;;;;;;5072998;28;20464;-76
2024/01/20 02:11:37;;;;;;;71.40;33.28;;;;;;;;;;5074497;28;20111;-77
2024/01/20 02:14:04;;;;;;;80.18;33.47;;;;;;;;;;5073130;28;20025;-78
2024/01/20 02:16:30;;;;;;;78.85;33.22;;;;;;;;;;5072753;28;20029;-78
2024/01/20 02:19:05;;;;;;;73.72;29.63;;;;;;;;;;5074285;28;20028;-77
2024/01/20 02:21:36;;;;;;;76.40;32.78;;;;;;;;;;5072341;28;20078;-77
2024/01/20 02:24:03;;;;;;;66.82;29.20;;;;;;;;;;5072536;28;20425;-78
2024/01/20 02:26:29;;;;;;;77.30;33.47;;;;;;;;;;5072705;28;20074;-77
2024/01/20 02:28:56;;;;;;;80.28;31.10;;;;;;;;;;5072550;28;20032;-77
2024/01/20 02:31:22;;;;;;;75.45;32.63;;;;;;;;;;5073802;28;20044;-78
2024/01/20 02:33:48;;;;;;;71.35;31.13;;;;;;;;;;5072701;28;20032;-78
2024/01/20 02:36:14;;;;;;;67.70;29.90;;;;;;;;;;5072386;28;20074;-77
2024/01/20 02:38:40;;;;;;;71.28;31.75;;;;;;;;;;5072593;28;20021;-77
2024/01/20 02:41:06;;;;;;;75.88;32.08;;;;;;;;;;5073572;28;20029;-77
2024/01/20 02:43:32;;;;;;;72.70;32.47;;;;;;;;;;5072202;28;20032;-77
2024/01/20 02:45:58;;;;;;;72.93;31.27;;;;;;;;;;5072116;28;20028;-78
2024/01/20 02:48:24;;;;;;;68.70;29.73;;;;;;;;;;5072162;28;20024;-78
2024/01/20 02:50:50;;;;;;;69.13;27.65;;;;;;;;;;5072327;28;20089;-77
2024/01/20 02:53:16;;;;;;;62.90;28.80;;;;;;;;;;5072328;28;20472;-79
2024/01/20 02:55:42;;;;;;;65.20;28.00;;;;;;;;;;5072558;28;20021;-79
2024/01/20 02:58:08;;;;;;;73.22;30.00;;;;;;;;;;5071958;28;20031;-79
2024/01/20 03:00:34;;;;;;;71.93;28.45;;;;;;;;;;5073379;28;20049;-78
2024/01/20 03:03:00;;;;;;;63.58;26.35;;;;;;;;;;5072132;28;20024;-78
2024/01/20 03:05:26;;;;;;;67.65;28.52;;;;;;;;;;5071728;28;20474;-77
2024/01/20 03:07:52;;;;;;;76.85;32.80;;;;;;;;;;5072048;28;20020;-77
2024/01/20 03:10:18;;;;;;;68.95;27.67;;;;;;;;;;5071879;28;20024;-78
2024/01/20 03:12:44;;;;;;;69.32;29.25;;;;;;;;;;5073366;28;20032;-77
2024/01/20 03:15:10;;;;;;;67.10;27.60;;;;;;;;;;5072014;28;20067;-77
2024/01/20 03:17:36;;;;;;;67.72;27.58;;;;;;;;;;5071826;28;20135;-80
2024/01/20 03:20:03;;;;;;;67.63;27.58;;;;;;;;;;5072115;28;20052;-80
2024/01/20 03:22:29;;;;;;;65.80;27.88;;;;;;;;;;5073236;28;20035;-80
2024/01/20 03:24:55;;;;;;;68.60;27.83;;;;;;;;;;5071931;28;20020;-80
2024/01/20 03:27:21;;;;;;;62.75;23.77;;;;;;;;;;5072239;28;20392;-81
2024/01/20 03:29:47;;;;;;;71.25;27.52;;;;;;;;;;5072874;28;20036;-81
2024/01/20 03:32:13;;;;;;;63.97;25.30;;;;;;;;;;5074748;28;20029;-79
2024/01/20 03:34:39;;;;;;;73.53;28.63;;;;;;;;;;5083301;28;20021;-76
2024/01/20 03:37:06;;;;;;;54.13;24.48;;;;;;;;;;5091865;28;20025;-79
2024/01/20 03:39:32;;;;;;;68.55;26.75;;;;;;;;;;5087730;28;20115;-77
2024/01/20 03:41:58;;;;;;;66.78;26.90;;;;;;;;;;5076391;28;20076;-78
2024/01/20 03:44:24;;;;;;;69.50;27.88;;;;;;;;;;5072486;28;20353;-80
2024/01/20 03:46:50;;;;;;;65.07;25.30;;;;;;;;;;5071657;28;20031;-81
2024/01/20 03:49:16;;;;;;;68.88;26.83;;;;;;;;;;5072453;28;20074;-78
2024/01/20 03:51:42;;;;;;;65.13;28.08;;;;;;;;;;5071495;28;20029;-81
2024/01/20 03:54:09;;;;;;;74.63;28.67;;;;;;;;;;5071539;28;20099;-81
2024/01/20 03:56:41;;;;;;;62.50;26.65;;;;;;;;;;5071253;28;20024;-81
2024/01/20 03:59:07;;;;;;;77.97;28.58;;;;;;;;;;5073090;28;20293;-80
2024/01/20 04:01:33;;;;;;;69.22;26.73;;;;;;;;;;5070935;28;20290;-80
2024/01/20 04:03:59;;;;;;;71.63;26.88;;;;;;;;;;5071574;28;20294;-80
2024/01/20 04:06:25;;;;;;;69.10;25.65;;;;;;;;;;5071074;28;20024;-79
2024/01/20 04:08:51;;;;;;;71.00;29.10;;;;;;;;;;5071011;28;20044;-81
2024/01/20 04:11:17;;;;;;;68.15;29.20;;;;;;;;;;5071276;28;20029;-80
2024/01/20 04:13:43;;;;;;;63.45;25.48;;;;;;;;;;5071263;28;20031;-81
2024/01/20 04:16:09;;;;;;;68.65;27.55;;;;;;;;;;5071106;28;20416;-77
2024/01/20 04:18:35;;;;;;;69.50;28.50;;;;;;;;;;5070851;28;20041;-79
2024/01/20 04:21:02;;;;;;;67.80;26.30;;;;;;;;;;5071153;28;20029;-79
2024/01/20 04:23:28;;;;;;;68.60;28.02;;;;;;;;;;5070872;28;20020;-80
2024/01/20 04:25:54;;;;;;;71.15;28.27;;;;;;;;;;5071184;28;20032;-79
2024/01/20 04:28:20;;;;;;;70.90;28.50;;;;;;;;;;5070791;28;20476;-79
2024/01/20 04:30:46;;;;;;;61.75;26.10;;;;;;;;;;5070938;28;20028;-79
2024/01/20 04:33:12;;;;;;;52.88;23.77;;;;;;;;;;5072577;28;20031;-80
2024/01/20 04:35:38;;;;;;;73.55;28.27;;;;;;;;;;5072056;28;20549;-80
2024/01/20 04:38:04;;;;;;;63.35;26.10;;;;;;;;;;5071960;28;20380;-79
2024/01/20 04:40:30;;;;;;;65.82;25.33;;;;;;;;;;5070634;28;20028;-79
2024/01/20 04:42:56;;;;;;;66.65;26.33;;;;;;;;;;5070878;28;20089;-79
2024/01/20 04:45:22;;;;;;;57.92;23.63;;;;;;;;;;5070454;28;20181;-80
2024/01/20 04:47:48;;;;;;;58.55;25.40;;;;;;;;;;5071964;28;20376;-80
2024/01/20 04:50:14;;;;;;;63.35;24.65;;;;;;;;;;5070675;28;20376;-79
2024/01/20 04:52:40;;;;;;;69.72;27.98;;;;;;;;;;5070620;28;20071;-80
2024/01/20 04:55:06;;;;;;;63.28;26.80;;;;;;;;;;5070915;28;20021;-81
2024/01/20 04:57:32;;;;;;;63.15;24.13;;;;;;;;;;5070731;28;20025;-79
2024/01/20 04:59:58;;;;;;;65.97;27.75;;;;;;;;;;5070665;28;20487;-79
2024/01/20 05:02:24;;;;;;;71.07;28.10;;;;;;;;;;5070383;28;20029;-80
2024/01/20 05:04:50;;;;;;;64.03;25.60;;;;;;;;;;5070721;28;20028;-79
2024/01/20 05:07:16;;;;;;;70.22;26.48;;;;;;;;;;5070486;28;20031;-79
2024/01/20 05:09:42;;;;;;;65.28;26.05;;;;;;;;;;5071548;28;20036;-78
2024/01/20 05:12:08;;;;;;;63.03;26.95;;;;;;;;;;5070262;28;20025;-78
2024/01/20 05:14:34;;;;;;;68.18;28.00;;;;;;;;;;5070140;28;20024;-78
2024/01/20 05:17:00;;;;;;;63.90;26.52;;;;;;;;;;5070317;28;20460;-77
2024/01/20 05:19:26;;;;;;;65.53;27.58;;;;;;;;;;5070477;28;20044;-78
2024/01/20 05:21:52;;;;;;;60.50;25.08;;;;;;;;;;5072437;28;20021;-78
2024/01/20 05:24:18;;;;;;;61.88;25.67;;;;;;;;;;5074206;28;20039;-78
2024/01/20 05:26:44;;;;;;;64.03;26.38;;;;;;;;;;5074024;28;20043;-78
2024/01/20 05:29:10;;;;;;;59.05;23.58;;;;;;;;;;5073897;28;20471;-78
2024/01/20 05:31:36;;;;;;;61.05;26.80;;;;;;;;;;5073806;28;20028;-77
2024/01/20 05:34:02;;;;;;;67.65;28.23;;;;;;;;;;5075267;28;20025;-77
2024/01/20 05:36:28;;;;;;;57.38;24.00;;;;;;;;;;5073659;28;20032;-77
2024/01/20 05:38:54;;;;;;;64.72;25.20;;;;;;;;;;5074031;28;20020;-78
2024/01/20 05:41:20;;;;;;;56.85;24.63;;;;;;;;;;5073751;28;20487;-78
2024/01/20 05:43:46;;;;;;;68.32;27.10;;;;;;;;;;5073547;28;20055;-79
2024/01/20 05:46:12;;;;;;;59.08;22.38;;;;;;;;;;5073715;28;20020;-80
2024/01/20 05:48:38;;;;;;;53.25;24.63;;;;;;;;;;5073664;28;20373;-79
2024/01/20 05:51:05;;;;;;;62.08;25.35;;;;;;;;;;5075012;28;20115;-78
2024/01/20 05:53:31;;;;;;;56.67;23.33;;;;;;;;;;5080277;28;20025;-76
2024/01/20 05:55:57;;;;;;;58.65;26.92;;;;;;;;;;5087100;28;20020;-76
2024/01/20 05:58:23;;;;;;;64.60;25.83;;;;;;;;;;5085091;28;20024;-78
2024/01/20 06:00:49;;;;;;;60.92;24.70;;;;;;;;;;5078182;28;20052;-79
2024/01/20 06:03:15;;;;;;;65.18;25.00;;;;;;;;;;5074402;28;20102;-79
2024/01/20 06:05:41;;;;;;;56.63;26.00;;;;;;;;;;5073298;28;20403;-79
2024/01/20 06:08:07;;;;;;;57.60;23.67;;;;;;;;;;5073347;28;20093;-78
2024/01/20 06:10:33;;;;;;;59.80;24.95;;;;;;;;;;5073187;28;20052;-79
2024/01/20 06:12:59;;;;;;;59.83;23.92;;;;;;;;;;5075025;28;20025;-79
2024/01/20 06:15:25;;;;;;;60.80;24.30;;;;;;;;;;5073017;28;20085;-79
2024/01/20 06:17:51;;;;;;;61.00;25.05;;;;;;;;;;5073139;28;20025;-79
2024/01/20 06:20:17;;;;;;;60.95;25.90;;;;;;;;;;5074680;28;20070;-79
2024/01/20 06:22:43;;;;;;;52.03;24.08;;;;;;;;;;5072734;28;20027;-79
2024/01/20 06:25:09;;;;;;;60.63;25.38;;;;;;;;;;5073027;28;20119;-79
2024/01/20 06:27:35;;;;;;;48.45;21.27;;;;;;;;;;5072739;28;20021;-79
2024/01/20 06:30:03;;;;;;;56.30;23.33;;;;;;;;;;5072937;28;20452;-79
2024/01/20 06:32:29;;;;;;;61.30;24.50;;;;;;;;;;5072428;28;20039;-78
2024/01/20 06:34:55;;;;;;;57.63;25.20;;;;;;;;;;5074451;28;20047;-79
2024/01/20 06:37:21;;;;;;;58.53;22.33;;;;;;;;;;5072728;28;20384;-79
2024/01/20 06:39:47;;;;;;;54.78;24.27;;;;;;;;;;5072516;28;20488;-78
2024/01/20 06:42:14;;;;;;;58.40;22.40;;;;;;;;;;5073675;28;20031;-78
2024/01/20 06:44:40;;;;;;;52.38;23.58;;;;;;;;;;5072268;28;20028;-79
2024/01/20 06:47:09;;;;;;;52.00;21.58;;;;;;;;;;5072516;28;20027;-77
2024/01/20 06:49:39;;;;;;;54.53;21.77;;;;;;;;;;5072297;28;20024;-78
2024/01/20 06:52:05;;;;;;;57.63;24.08;;;;;;;;;;5072357;28;20028;-78
2024/01/20 06:54:31;;;;;;;53.60;22.88;;;;;;;;;;5071786;28;20027;-77
2024/01/20 06:56:57;;;;;;;64.00;27.15;;;;;;;;;;5072220;28;20036;-78
2024/01/20 06:59:23;;;;;;;51.00;21.73;;;;;;;;;;5072249;28;20082;-78
2024/01/20 07:01:49;;;;;;;54.75;24.20;;;;;;;;;;5071711;28;20503;-78
2024/01/20 07:04:15;;;;;;;54.65;21.02;;;;;;;;;;5072037;28;20033;-78
2024/01/20 07:06:41;;;;;;;63.47;24.83;;;;;;;;;;5071845;28;20025;-78
2024/01/20 07:09:07;;;;;;;65.63;24.55;;;;;;;;;;5072115;28;20036;-77
2024/01/20 07:11:33;;;;;;;55.08;22.52;;;;;;;;;;5071344;28;20078;-77
2024/01/20 07:14:00;;;;;;;59.55;23.83;;;;;;;;;;5072110;28;20033;-79
2024/01/20 07:16:26;;;;;;;55.60;23.80;;;;;;;;;;5072828;28;20401;-79
2024/01/20 07:18:52;;;;;;;56.58;22.85;;;;;;;;;;5071607;28;20365;-78
2024/01/20 07:21:18;;;;;;;47.33;19.20;;;;;;;;;;5071799;28;20021;-80
2024/01/20 07:23:44;;;;;;;55.05;24.85;;;;;;;;;;5071376;28;20031;-79
2024/01/20 07:26:10;;;;;;;53.13;21.98;;;;;;;;;;5073052;28;20109;-77
2024/01/20 07:28:36;;;;;;;67.03;24.17;;;;;;;;;;5071531;28;20111;-78
2024/01/20 07:31:02;;;;;;;60.00;23.67;;;;;;;;;;5071677;28;20028;-78
2024/01/20 07:33:28;;;;;;;60.08;24.58;;;;;;;;;;5071653;28;20475;-78
2024/01/20 07:35:54;;;;;;;61.60;23.38;;;;;;;;;;5071495;28;20032;-78
2024/01/20 07:38:20;;;;;;;57.00;24.17;;;;;;;;;;5071403;28;20021;-77
2024/01/20 07:40:46;;;;;;;59.58;24.95;;;;;;;;;;5071280;28;20020;-77
2024/01/20 07:43:12;;;;;;;55.10;24.00;;;;;;;;;;5072379;28;20060;-77
2024/01/20 07:45:40;;;;;;;60.95;25.23;;;;;;;;;;5070495;28;20113;-77
2024/01/20 07:48:06;;;;;;;64.22;24.85;;;;;;;;;;5071379;28;20074;-77
2024/01/20 07:50:32;;;;;;;59.70;23.92;;;;;;;;;;5071034;28;20376;-77
2024/01/20 07:52:58;;;;;;;56.28;23.92;;;;;;;;;;5071380;28;20032;-78
2024/01/20 07:55:24;;;;;;;51.40;25.15;;;;;;;;;;5071213;28;20025;-78
2024/01/20 07:57:50;;;;;;;58.47;23.90;;;;;;;;;;5071012;28;20024;-79
2024/01/20 08:00:16;;;;;;;55.45;22.35;;;;;;;;;;5070891;28;20035;-77
2024/01/20 08:02:42;;;;;;;57.08;23.25;;;;;;;;;;5070829;28;20021;-78
2024/01/20 08:05:10;;;;;;;50.25;21.15;;;;;;;;;;5054815;28;20053;-77
2024/01/20 08:07:36;;;;;;;53.53;23.15;;;;;;;;;;5071902;28;20533;-77
2024/01/20 08:10:02;;;;;;;52.72;22.63;;;;;;;;;;5071234;28;20390;-77
2024/01/20 08:12:28;;;;;;;51.28;22.60;;;;;;;;;;5071662;28;20031;-77
2024/01/20 08:14:54;;;;;;;43.45;19.48;;;;;;;;;;5071914;28;20021;-75
2024/01/20 08:17:20;;;;;;;42.17;20.70;;;;;;;;;;5071924;28;20028;-78
2024/01/20 08:19:46;;;;;;;51.80;21.27;;;;;;;;;;5071520;28;20460;-77
2024/01/20 08:22:15;;;;;;;45.22;21.52;;;;;;;;;;5071235;28;20081;-77
2024/01/20 08:24:41;;;;;;;52.22;21.17;;;;;;;;;;5071073;28;20576;-77
2024/01/20 08:27:07;;;;;;;45.72;22.40;;;;;;;;;;5072891;28;20047;-77
2024/01/20 08:29:33;;;;;;;58.17;25.00;;;;;;;;;;5071073;28;20024;-77
2024/01/20 08:31:59;;;;;;;47.30;19.67;;;;;;;;;;5071289;28;20435;-76
2024/01/20 08:34:25;;;;;;;42.88;18.60;;;;;;;;;;5071812;28;20086;-77
2024/01/20 08:36:51;;;;;;;49.65;20.08;;;;;;;;;;5071466;28;20025;-77
2024/01/20 08:39:20;;;;;;;36.88;16.52;;;;;;;;;;5071716;28;20136;-77
2024/01/20 08:41:47;;;;;;;53.30;22.10;;;;;;;;;;5070964;28;20480;-77
2024/01/20 08:44:13;;;;;;;34.63;16.77;;;;;;;;;;5070968;28;20021;-77
2024/01/20 08:46:39;;;;;;;48.85;21.73;;;;;;;;;;5070797;28;20052;-77
2024/01/20 08:49:05;;;;;;;41.97;18.88;;;;;;;;;;5070797;28;20024;-78
2024/01/20 08:51:31;;;;;;;46.65;19.08;;;;;;;;;;5070824;28;20029;-76
2024/01/20 08:53:57;;;;;;;41.42;19.67;;;;;;;;;;5070886;28;20032;-78
2024/01/20 08:56:23;;;;;;;42.58;20.40;;;;;;;;;;5073618;28;20114;-76
2024/01/20 08:58:49;;;;;;;44.30;20.63;;;;;;;;;;5075836;28;20028;-76
2024/01/20 09:01:17;;;;;;;48.05;21.80;;;;;;;;;;5074555;28;20420;-77
2024/01/20 09:03:43;;;;;;;57.28;24.10;;;;;;;;;;5074626;28;20044;-77
2024/01/20 09:06:11;;;;;;;40.10;18.77;;;;;;;;;;5074839;28;20391;-77
2024/01/20 09:08:37;;;;;;;43.38;20.67;;;;;;;;;;5074563;28;20483;-78
2024/01/20 09:11:03;;;;;;;44.70;21.95;;;;;;;;;;5074560;28;20382;-77
2024/01/20 09:13:29;;;;;;;47.42;21.15;;;;;;;;;;5074348;28;20028;-77
2024/01/20 09:15:55;;;;;;;52.80;22.30;;;;;;;;;;5074173;28;20024;-77
2024/01/20 09:18:21;;;;;;;39.38;20.05;;;;;;;;;;5074496;28;20426;-77
2024/01/20 09:20:47;;;;;;;46.15;20.70;;;;;;;;;;5075090;28;20427;-78
2024/01/20 09:23:13;;;;;;;41.90;18.73;;;;;;;;;;5074953;28;20037;-77
2024/01/20 09:25:39;;;;;;;54.08;22.13;;;;;;;;;;5074847;28;20025;-78
2024/01/20 09:28:06;;;;;;;48.70;22.52;;;;;;;;;;5075359;28;20032;-77
2024/01/20 09:30:35;;;;;;;42.63;18.67;;;;;;;;;;5076703;28;20020;-77
2024/01/20 09:33:05;;;;;;;44.50;20.08;;;;;;;;;;5075293;28;20116;-77
2024/01/20 09:35:31;;;;;;;;;;;;;;;;;;5075450;28;20074;-76
2024/01/20 09:37:57;;;;;;;42.60;18.40;;;;;;;;;;5074675;28;19919;-76
2024/01/20 09:40:23;;;;;;;34.47;15.98;;;;;;;;;;5074928;28;20024;-77
2024/01/20 09:42:50;;;;;;;40.15;18.05;;;;;;;;;;5074814;28;20032;-76
2024/01/20 09:45:16;;;;;;;46.47;20.27;;;;;;;;;;5074317;28;20495;-77
2024/01/20 09:47:42;;;;;;;29.73;12.82;;;;;;;;;;5074450;28;20075;-77
2024/01/20 09:50:09;;;;;;;46.28;20.20;;;;;;;;;;5074381;28;20033;-77
2024/01/20 09:52:41;;;;;;;39.40;19.98;;;;;;;;;;5074324;28;20028;-78
2024/01/20 09:55:16;;;;;;;41.83;19.90;;;;;;;;;;5074397;28;20024;-77
2024/01/20 09:57:45;;;;;;;38.10;15.48;;;;;;;;;;5073921;28;20476;-78
2024/01/20 10:00:13;;;;;;;36.33;17.80;;;;;;;;;;5073968;28;20029;-77
2024/01/20 10:02:40;;;;;;;44.25;20.20;;;;;;;;;;5074158;28;20055;-77
2024/01/20 10:05:09;;;;;;;44.45;20.60;;;;;;;;;;5074094;28;20056;-76
2024/01/20 10:07:35;;;;;;;38.80;19.57;;;;;;;;;;5073819;28;20056;-77
2024/01/20 10:10:02;;;;;;;46.67;20.27;;;;;;;;;;5074165;28;20499;-77
2024/01/20 10:12:28;;;;;;;39.40;19.55;;;;;;;;;;5074235;28;20031;-76
2024/01/20 10:14:54;;;;;;;43.10;21.02;;;;;;;;;;5075107;28;20025;-76
2024/01/20 10:17:20;;;;;;;44.63;21.60;;;;;;;;;;5057380;28;20033;-77
2024/01/20 10:19:46;;;;;;;41.42;20.25;;;;;;;;;;5073838;28;20024;-76
2024/01/20 10:22:13;;;;;;;44.72;21.17;;;;;;;;;;5073692;28;20476;-78
2024/01/20 10:24:48;;;;;;;49.15;24.13;;;;;;;;;;5073728;28;20397;-77
2024/01/20 10:27:18;;;;;;;42.10;18.98;;;;;;;;;;5074477;28;20043;-76
2024/01/20 10:29:45;;;;;;;57.30;21.85;;;;;;;;;;5074907;28;20043;-76
2024/01/20 10:32:11;;;;;;;47.22;21.23;;;;;;;;;;5075187;28;20028;-76
2024/01/20 10:34:37;;;;;;;42.58;19.92;;;;;;;;;;5074949;28;20032;-76
2024/01/20 10:37:13;;;;;;;37.67;18.38;;;;;;;;;;5075801;28;20050;-76
2024/01/20 10:39:46;;;;;;;45.75;20.73;;;;;;;;;;5074814;28;20419;-77
2024/01/20 10:42:13;;;;;;;33.80;14.95;;;;;;;;;;5075125;28;20036;-78
2024/01/20 10:44:53;;;;;;;40.75;19.08;;;;;;;;;;5075308;28;20033;-76
2024/01/20 10:47:21;;;;;;;;;;;;;;;;;;5075892;28;20047;-77
2024/01/20 10:49:49;;;;;;;46.70;19.63;;;;;;;;;;5075229;28;19904;-81
2024/01/20 10:52:16;;;;;;;38.53;18.23;;;;;;;;;;5080833;28;20059;-84
2024/01/20 10:54:43;;;;;;;45.67;20.35;;;;;;;;;;5079883;28;20044;-85
2024/01/20 10:57:09;;;;;;;41.88;20.27;;;;;;;;;;5062891;28;20503;-82
2024/01/20 10:59:39;;;;;;;48.50;22.55;;;;;;;;;;5078748;28;20074;-84
2024/01/20 11:02:06;;;;;;;43.83;21.50;;;;;;;;;;5080004;28;20043;-85
2024/01/20 11:04:33;;;;;;;45.80;21.70;;;;;;;;;;5080641;28;20031;-84
2024/01/20 11:07:00;;;;;;;53.25;23.17;;;;;;;;;;5079663;28;20040;-82
2024/01/20 11:09:26;;;;;;;37.63;18.58;;;;;;;;;;5079159;28;20383;-80
2024/01/20 11:12:08;;;;;;;49.60;23.48;;;;;;;;;;5078031;28;20020;-84
2024/01/20 11:14:35;;;;;;;42.55;20.52;;;;;;;;;;5081357;28;20388;-86
2024/01/20 11:17:14;;;;;;;41.38;21.92;;;;;;;;;;5080452;28;20494;-85
2024/01/20 11:19:40;;;;;;;46.47;21.77;;;;;;;;;;5079135;28;20085;-84
2024/01/20 11:22:25;;;;;;;44.10;21.95;;;;;;;;;;5081966;28;20029;-85
2024/01/20 11:24:53;;;;;;;48.30;22.60;;;;;;;;;;5080870;28;20026;-86
2024/01/20 11:27:19;;;;;;;47.50;24.17;;;;;;;;;;5080901;28;20040;-86
2024/01/20 11:29:45;;;;;;;42.78;20.60;;;;;;;;;;5080035;28;20024;-85
2024/01/20 11:32:12;;;;;;;44.35;22.30;;;;;;;;;;5082126;28;20024;-85
2024/01/20 11:34:38;;;;;;;42.42;21.08;;;;;;;;;;5080490;28;20032;-86
2024/01/20 11:37:04;;;;;;;46.85;21.63;;;;;;;;;;5081407;28;20036;-86
2024/01/20 11:39:30;;;;;;;39.95;19.08;;;;;;;;;;5079766;28;20040;-87
2024/01/20 11:42:00;;;;;;;38.80;18.95;;;;;;;;;;5079783;28;20032;-86
2024/01/20 11:44:27;;;;;;;36.30;18.40;;;;;;;;;;5079900;28;20034;-87
2024/01/20 11:46:54;;;;;;;40.67;18.67;;;;;;;;;;5080290;28;20135;-86
2024/01/20 11:49:20;;;;;;;42.38;21.20;;;;;;;;;;5063541;28;20028;-85
2024/01/20 11:51:46;;;;;;;41.47;20.88;;;;;;;;;;5079646;28;20051;-86
2024/01/20 11:54:12;;;;;;;36.70;18.58;;;;;;;;;;5080258;28;20365;-88
2024/01/20 11:56:38;;;;;;;37.30;15.98;;;;;;;;;;5081733;28;20031;-88
2024/01/20 11:59:05;;;;;;;37.53;18.73;;;;;;;;;;5080931;28;20047;-88
2024/01/20 12:01:33;;;;;;;37.92;20.02;;;;;;;;;;5081180;28;20114;-88
2024/01/20 12:04:00;;;;;;;40.47;18.08;;;;;;;;;;5080065;28;20043;-90
2024/01/20 12:06:26;;;;;;;40.88;18.45;;;;;;;;;;5058272;28;20035;-88
2024/01/20 12:08:52;;;;;;;37.28;19.85;;;;;;;;;;5074292;28;20025;-88
2024/01/20 12:11:19;;;;;;;39.95;20.33;;;;;;;;;;5075009;28;20115;-89
2024/01/20 12:13:46;;;;;;;34.72;17.67;;;;;;;;;;5074502;28;20643;-88
2024/01/20 12:16:12;;;;;;;43.08;21.35;;;;;;;;;;5074187;28;20448;-87
2024/01/20 12:18:38;;;;;;;37.30;21.02;;;;;;;;;;5073796;28;20058;-89
2024/01/20 12:21:04;;;;;;;31.08;15.65;;;;;;;;;;5073243;28;20469;-88
2024/01/20 12:23:30;;;;;;;36.33;18.73;;;;;;;;;;5074206;28;20024;-89
2024/01/20 12:25:56;;;;;;;31.52;18.75;;;;;;;;;;5073116;28;20021;-88
2024/01/20 12:28:22;;;;;;;35.28;19.73;;;;;;;;;;5073757;28;20441;-89
2024/01/20 12:30:48;;;;;;;25.48;13.55;;;;;;;;;;5075810;28;20021;-90
2024/01/20 12:33:14;;;;;;;29.17;17.33;;;;;;;;;;5077663;28;20123;-89
2024/01/20 12:35:40;;;;;;;28.73;16.10;;;;;;;;;;5077701;28;20024;-88
2024/01/20 12:38:07;;;;;;;31.17;18.27;;;;;;;;;;5077904;28;20115;-88
2024/01/20 12:40:33;;;;;;;29.60;17.27;;;;;;;;;;5078548;28;20071;-90
2024/01/20 12:43:00;;;;;;;28.00;17.48;;;;;;;;;;5078052;28;20040;-90
2024/01/20 12:45:29;;;;;;;31.20;17.95;;;;;;;;;;5080267;28;20108;-90
2024/01/20 12:47:55;;;;;;;27.83;16.30;;;;;;;;;;5080546;28;20028;-89
2024/01/20 12:50:21;;;;;;;30.75;16.88;;;;;;;;;;5086375;28;20024;-89
2024/01/20 12:52:47;;;;;;;32.95;18.38;;;;;;;;;;5100424;28;20055;-88
2024/01/20 12:55:13;;;;;;;33.55;18.58;;;;;;;;;;5100320;28;20025;-86
2024/01/20 12:57:40;;;;;;;33.75;18.15;;;;;;;;;;5098994;28;20104;-87
2024/01/20 13:00:07;;;;;;;30.08;16.55;;;;;;;;;;5094066;28;20033;-86
2024/01/20 13:02:35;;;;;;;31.33;16.10;;;;;;;;;;5077018;28;20058;-89
2024/01/20 13:05:01;;;;;;;27.65;15.80;;;;;;;;;;5076372;28;20024;-89
2024/01/20 13:07:27;;;;;;;30.38;16.20;;;;;;;;;;5076046;28;20124;-89
2024/01/20 13:09:53;;;;;;;25.80;14.32;;;;;;;;;;5075871;28;20060;-87
2024/01/20 13:12:19;;;;;;;25.50;16.15;;;;;;;;;;5075922;28;20036;-88
2024/01/20 13:14:46;;;;;;;25.25;14.27;;;;;;;;;;5075945;28;20035;-87
2024/01/20 13:17:12;;;;;;;26.80;15.25;;;;;;;;;;5076122;28;20063;-87
2024/01/20 13:19:38;;;;;;;28.65;16.27;;;;;;;;;;5075773;28;20029;-87
2024/01/20 13:22:06;;;;;;;30.33;18.10;;;;;;;;;;5075267;28;20028;-88
2024/01/20 13:24:33;;;;;;;27.95;15.88;;;;;;;;;;5075912;28;20032;-88
2024/01/20 13:26:59;;;;;;;27.52;15.85;;;;;;;;;;5075612;28;20025;-88
2024/01/20 13:29:25;;;;;;;23.75;13.38;;;;;;;;;;5076366;28;20021;-87
2024/01/20 13:31:51;;;;;;;23.98;12.40;;;;;;;;;;5075486;28;20040;-87
2024/01/20 13:34:17;;;;;;;30.92;16.63;;;;;;;;;;5076135;28;20380;-87
2024/01/20 13:36:43;;;;;;;25.63;13.82;;;;;;;;;;5075939;28;20029;-87
2024/01/20 13:39:09;;;;;;;26.80;16.63;;;;;;;;;;5075294;28;20040;-87
2024/01/20 13:41:35;;;;;;;31.73;17.98;;;;;;;;;;5074422;28;20029;-86
2024/01/20 13:44:01;;;;;;;31.52;17.73;;;;;;;;;;5075538;28;20104;-88
2024/01/20 13:46:27;;;;;;;28.67;18.10;;;;;;;;;;5075648;28;20044;-87
2024/01/20 13:48:53;;;;;;;26.88;15.57;;;;;;;;;;5075244;28;20518;-87
2024/01/20 13:51:22;;;;;;;24.20;14.77;;;;;;;;;;5076273;28;20387;-87
2024/01/20 13:53:48;;;;;;;29.15;16.20;;;;;;;;;;5074682;28;20028;-88
2024/01/20 13:56:14;;;;;;;31.95;18.25;;;;;;;;;;5075395;28;20033;-87
2024/01/20 13:58:40;;;;;;;25.73;15.52;;;;;;;;;;5075653;28;20028;-87
2024/01/20 14:01:06;;;;;;;24.40;14.60;;;;;;;;;;5074996;28;20488;-87
2024/01/20 14:03:32;;;;;;;29.02;16.92;;;;;;;;;;5075127;28;20025;-86
2024/01/20 14:05:58;;;;;;;23.45;14.85;;;;;;;;;;5075225;28;20024;-85
2024/01/20 14:08:24;;;;;;;23.88;14.07;;;;;;;;;;5075468;28;20027;-86
2024/01/20 14:10:50;;;;;;;27.45;16.38;;;;;;;;;;5074951;28;20029;-85
2024/01/20 14:13:16;;;;;;;23.63;15.55;;;;;;;;;;5074764;28;20495;-87